05FA weather

Melanie's Airport
Florala, Florida, United States

Public forecast

Using degrees Fahrenheit for public forecast. Weather courtesy of forecast.io.

METAR (pilot weather report)

Closest report is Florala Municipal Airport, 8.8 nm (16.4 km) NNW. Retrieved 2017/12/15 15:58 UTC (35 minutes ago):

K0J4 151558Z AUTO VRB04KT 10SM CLR 08/04 A3018 RMK AO2 SLP220 T00830039 $

TAF (pilot weather forecast)

Forecast is more than 6 hours old.

Closest forecast is Duke Field, 22.5 nm (41.7 km) SW. Retrieved 2017/12/15 10:02 UTC (7 hours ago):

TAF KEGI 151000Z 1510/1616 33006KT 9999 SCT100 BKN180 QNH3000INS BECMG 1515/1516 34012KT 9999 SCT090 BKN140 QNH3010INS BECMG 1602/1603 03008KT 9999 SCT060 BKN100 QNH3003INS TX14/1519Z TN07/1512Z LAST NO AMDS AFT 1510 NEXT 1515 FCST BY USAF WX MET TECH